createdAt,value
2019-01-30T00:01:26.140Z,-2.90
2019-01-30T00:03:56.228Z,-2.90
2019-01-30T00:06:26.151Z,-3.00
2019-01-30T00:08:56.169Z,-3.00
2019-01-30T00:11:27.539Z,-3.00
2019-01-30T00:14:02.566Z,-3.10
2019-01-30T00:16:38.015Z,-3.10
2019-01-30T00:19:12.773Z,-3.10
2019-01-30T00:21:47.941Z,-3.20
2019-01-30T00:24:19.157Z,-3.20
2019-01-30T00:26:53.599Z,-3.20
2019-01-30T00:29:28.567Z,-3.30
2019-01-30T00:32:01.600Z,-3.30
2019-01-30T00:34:37.130Z,-3.30
2019-01-30T00:37:09.728Z,-3.30
2019-01-30T00:39:43.334Z,-3.30
2019-01-30T00:42:15.437Z,-3.30
2019-01-30T00:44:49.278Z,-3.30
2019-01-30T00:47:23.095Z,-3.40
2019-01-30T00:49:56.255Z,-3.40
2019-01-30T00:52:29.638Z,-3.40
2019-01-30T00:55:02.176Z,-3.40
2019-01-30T00:57:35.827Z,-3.50
2019-01-30T01:00:14.661Z,-3.50
2019-01-30T01:02:48.740Z,-3.50
2019-01-30T01:05:21.903Z,-3.50
2019-01-30T01:07:52.759Z,-3.60
2019-01-30T01:10:23.491Z,-3.50
2019-01-30T01:12:57.380Z,-3.60
2019-01-30T01:15:31.593Z,-3.60
2019-01-30T01:18:03.938Z,-3.60
2019-01-30T01:20:38.471Z,-3.60
2019-01-30T01:23:12.291Z,-3.60
2019-01-30T01:25:45.418Z,-3.60
2019-01-30T01:28:19.523Z,-3.60
2019-01-30T01:30:52.403Z,-3.60
2019-01-30T01:33:28.035Z,-3.70
2019-01-30T01:36:03.099Z,-3.60
2019-01-30T01:38:35.167Z,-3.70
2019-01-30T01:41:07.358Z,-3.70
2019-01-30T01:43:40.447Z,-3.80
2019-01-30T01:46:13.444Z,-3.80
2019-01-30T01:48:44.711Z,-3.80
2019-01-30T01:51:16.779Z,-3.80
2019-01-30T01:53:50.136Z,-3.80
2019-01-30T01:56:23.441Z,-3.80
2019-01-30T01:58:57.550Z,-3.80
2019-01-30T02:01:31.205Z,-3.80
2019-01-30T02:04:03.975Z,-3.80
2019-01-30T02:06:36.166Z,-3.80
2019-01-30T02:09:10.791Z,-3.90
2019-01-30T02:11:44.335Z,-3.90
2019-01-30T02:14:18.915Z,-3.90
2019-01-30T02:16:51.931Z,-3.90
2019-01-30T02:19:21.875Z,-3.90
2019-01-30T02:21:57.343Z,-4.00
2019-01-30T02:24:31.942Z,-4.00
2019-01-30T02:27:05.529Z,-4.00
2019-01-30T02:29:40.318Z,-4.00
2019-01-30T02:32:12.461Z,-4.10
2019-01-30T02:34:46.893Z,-4.10
2019-01-30T02:37:20.897Z,-4.10
2019-01-30T02:39:55.467Z,-4.20
2019-01-30T02:42:28.625Z,-4.20
2019-01-30T02:45:01.549Z,-4.20
2019-01-30T02:47:37.395Z,-4.20
2019-01-30T02:50:11.708Z,-4.20
2019-01-30T02:52:45.763Z,-4.20
2019-01-30T02:55:18.207Z,-4.30
2019-01-30T02:57:50.562Z,-4.30
2019-01-30T03:00:31.361Z,-4.30
2019-01-30T03:03:04.622Z,-4.30
2019-01-30T03:05:36.762Z,-4.30
2019-01-30T03:08:11.843Z,-4.30
2019-01-30T03:10:46.520Z,-4.30
2019-01-30T03:13:22.253Z,-4.40
2019-01-30T03:15:58.439Z,-4.40
2019-01-30T03:18:32.375Z,-4.40
2019-01-30T03:21:06.883Z,-4.40
2019-01-30T03:23:36.556Z,-4.50
2019-01-30T03:26:11.551Z,-4.50
2019-01-30T03:28:47.344Z,-4.50
2019-01-30T03:31:21.846Z,-4.50
2019-01-30T03:33:54.130Z,-4.50
2019-01-30T03:36:27.851Z,-4.50
2019-01-30T03:39:05.990Z,-4.50
2019-01-30T03:41:40.485Z,-4.50
2019-01-30T03:44:12.274Z,-4.40
2019-01-30T03:46:47.403Z,-4.50
2019-01-30T03:49:21.241Z,-4.50
2019-01-30T03:51:57.355Z,-4.50
2019-01-30T03:54:32.420Z,-4.50
2019-01-30T03:57:07.440Z,-4.50
2019-01-30T03:59:42.189Z,-4.50
2019-01-30T04:02:12.174Z,-4.60
2019-01-30T04:04:44.340Z,-4.50
2019-01-30T04:07:18.112Z,-4.60
2019-01-30T04:09:54.678Z,-4.50
2019-01-30T04:12:30.315Z,-4.60
2019-01-30T04:15:01.615Z,-4.50
2019-01-30T04:17:32.369Z,-4.50
2019-01-30T04:20:06.718Z,-4.50
2019-01-30T04:22:41.437Z,-4.50
2019-01-30T04:25:13.998Z,-4.50
2019-01-30T04:27:46.892Z,-4.50
2019-01-30T04:30:24.825Z,-4.60
2019-01-30T04:32:59.186Z,-4.60
2019-01-30T04:35:31.504Z,-4.60
2019-01-30T04:38:04.665Z,-4.60
2019-01-30T04:40:41.330Z,-4.70
2019-01-30T04:43:13.995Z,-4.70
2019-01-30T04:45:49.761Z,-4.70
2019-01-30T04:48:25.819Z,-4.80
2019-01-30T04:50:58.481Z,-4.80
2019-01-30T04:53:35.358Z,-4.90
2019-01-30T04:56:09.331Z,-4.90
2019-01-30T04:58:41.285Z,-5.00
2019-01-30T05:01:15.431Z,-5.10
2019-01-30T05:03:49.508Z,-5.10
2019-01-30T05:06:24.513Z,-5.20
2019-01-30T05:08:56.019Z,-5.20
2019-01-30T05:11:28.338Z,-5.20
2019-01-30T05:13:57.979Z,-5.30
2019-01-30T05:16:30.346Z,-5.30
2019-01-30T05:19:04.482Z,-5.30
2019-01-30T05:21:34.526Z,-5.30
2019-01-30T05:24:08.201Z,-5.40
2019-01-30T05:26:40.636Z,-5.40
2019-01-30T05:29:14.798Z,-5.50
2019-01-30T05:32:00.964Z,-5.40
2019-01-30T05:34:28.699Z,-5.40
2019-01-30T05:37:00.979Z,-5.60
2019-01-30T05:39:34.064Z,-5.60
2019-01-30T05:42:10.082Z,-5.60
2019-01-30T05:44:45.809Z,-5.60
2019-01-30T05:47:19.710Z,-5.60
2019-01-30T05:49:55.660Z,-5.60
2019-01-30T05:52:30.251Z,-5.70
2019-01-30T05:55:03.586Z,-5.80
2019-01-30T05:57:36.781Z,-6.00
2019-01-30T06:00:11.007Z,-6.10
2019-01-30T06:02:43.720Z,-6.20
2019-01-30T06:05:17.185Z,-6.30
2019-01-30T06:07:52.049Z,-6.40
2019-01-30T06:10:21.641Z,-6.40
2019-01-30T06:12:56.167Z,-6.50
2019-01-30T06:15:33.313Z,-6.60
2019-01-30T06:18:05.761Z,-6.60
2019-01-30T06:20:38.891Z,-6.70
2019-01-30T06:23:13.126Z,-6.70
2019-01-30T06:25:45.548Z,-6.70
2019-01-30T06:28:18.041Z,-6.80
2019-01-30T06:30:52.963Z,-6.80
2019-01-30T06:33:25.456Z,-6.80
2019-01-30T06:36:00.823Z,-6.70
2019-01-30T06:38:35.468Z,-6.70
2019-01-30T06:41:08.403Z,-6.70
2019-01-30T06:43:40.043Z,-6.70
2019-01-30T06:46:14.208Z,-6.70
2019-01-30T06:48:47.761Z,-6.70
2019-01-30T06:51:23.399Z,-6.70
2019-01-30T06:53:53.430Z,-6.70
2019-01-30T06:56:23.704Z,-6.60
2019-01-30T06:58:56.448Z,-6.60
2019-01-30T07:01:29.477Z,-6.60
2019-01-30T07:04:00.322Z,-6.60
2019-01-30T07:06:33.433Z,-6.50
2019-01-30T07:09:04.562Z,-6.50
2019-01-30T07:11:36.003Z,-6.50
2019-01-30T07:14:10.637Z,-6.50
2019-01-30T07:16:42.558Z,-6.50
2019-01-30T07:19:12.487Z,-6.50
2019-01-30T07:21:43.078Z,-6.50
2019-01-30T07:24:13.362Z,-6.50
2019-01-30T07:26:43.546Z,-6.40
2019-01-30T07:29:14.041Z,-6.50
2019-01-30T07:31:46.368Z,-6.40
2019-01-30T07:34:18.515Z,-6.40
2019-01-30T07:36:53.170Z,-6.50
2019-01-30T07:39:26.696Z,-6.50
2019-01-30T07:41:56.478Z,-6.40
2019-01-30T07:44:32.372Z,-6.40
2019-01-30T07:47:02.627Z,-6.40
2019-01-30T07:49:38.090Z,-6.40
2019-01-30T07:52:08.580Z,-6.40
2019-01-30T07:54:43.635Z,-6.30
2019-01-30T07:57:16.670Z,-6.30
2019-01-30T07:59:50.399Z,-6.20
2019-01-30T08:02:22.319Z,-6.20
2019-01-30T08:04:53.187Z,-6.10
2019-01-30T08:07:23.382Z,-6.10
2019-01-30T08:09:53.361Z,-6.10
2019-01-30T08:12:27.428Z,-6.10
2019-01-30T08:14:58.690Z,-6.00
2019-01-30T08:17:29.545Z,-6.00
2019-01-30T08:20:02.442Z,-6.00
2019-01-30T08:22:33.428Z,-6.00
2019-01-30T08:25:04.009Z,-6.00
2019-01-30T08:27:34.054Z,-6.00
2019-01-30T08:30:05.764Z,-6.00
2019-01-30T08:32:36.679Z,-6.00
2019-01-30T08:35:08.366Z,-5.90
2019-01-30T08:37:38.598Z,-6.00
2019-01-30T08:40:10.959Z,-6.00
2019-01-30T08:42:44.826Z,-6.00
2019-01-30T08:45:20.943Z,-6.00
2019-01-30T08:47:53.518Z,-6.00
2019-01-30T08:50:27.432Z,-5.90
2019-01-30T08:52:59.746Z,-6.00
2019-01-30T08:55:33.055Z,-6.10
2019-01-30T08:58:06.315Z,-6.10
2019-01-30T09:00:37.361Z,-6.00
2019-01-30T09:03:14.821Z,-6.10
2019-01-30T09:05:42.811Z,-6.00
2019-01-30T09:08:15.921Z,-6.00
2019-01-30T09:10:54.479Z,-6.10
2019-01-30T09:13:27.571Z,-6.00
2019-01-30T09:16:03.557Z,-6.00
2019-01-30T09:18:38.226Z,-6.10
2019-01-30T09:21:13.316Z,-6.00
2019-01-30T09:23:50.886Z,-6.00
2019-01-30T09:26:24.973Z,-6.00
2019-01-30T09:28:57.541Z,-6.00
2019-01-30T09:31:29.795Z,-6.00
2019-01-30T09:34:03.103Z,-6.10
2019-01-30T09:36:36.743Z,-6.00
2019-01-30T09:39:12.725Z,-6.00
2019-01-30T09:41:45.829Z,-6.00
2019-01-30T09:44:19.041Z,-5.90
2019-01-30T09:46:53.039Z,-5.90
2019-01-30T09:49:33.729Z,-5.90
2019-01-30T09:52:09.082Z,-5.90
2019-01-30T09:54:43.748Z,-5.80
2019-01-30T09:57:17.855Z,-5.80
2019-01-30T09:59:56.424Z,-5.80
2019-01-30T10:02:29.390Z,-5.80
2019-01-30T10:05:00.211Z,-5.80
2019-01-30T10:07:31.726Z,-5.70
2019-01-30T10:10:04.396Z,-5.70
2019-01-30T10:12:39.015Z,-5.80
2019-01-30T10:15:14.028Z,-5.70
2019-01-30T10:17:46.757Z,-5.60
2019-01-30T10:20:21.237Z,-5.70
2019-01-30T10:22:52.033Z,-5.80
2019-01-30T10:25:24.807Z,-5.80
2019-01-30T10:27:57.730Z,-5.80
2019-01-30T10:30:45.767Z,-5.80
2019-01-30T10:33:19.878Z,-5.70
2019-01-30T10:35:53.387Z,-5.70
2019-01-30T10:38:27.929Z,-5.70
2019-01-30T10:41:03.605Z,-5.60
2019-01-30T10:43:38.197Z,-5.70
2019-01-30T10:46:13.090Z,-5.70
2019-01-30T10:48:47.089Z,-5.90
2019-01-30T10:51:24.994Z,-6.00
2019-01-30T10:53:58.653Z,-6.00
2019-01-30T10:56:33.418Z,-5.90
2019-01-30T10:59:06.016Z,-6.00
2019-01-30T11:01:40.708Z,-6.00
2019-01-30T11:04:12.802Z,-5.90
2019-01-30T11:06:46.560Z,-5.90
2019-01-30T11:09:20.591Z,-5.90
2019-01-30T11:11:53.663Z,-5.90
2019-01-30T11:14:27.075Z,-5.90
2019-01-30T11:17:01.974Z,-5.90
2019-01-30T11:19:32.908Z,-5.80
2019-01-30T11:22:03.174Z,-5.80
2019-01-30T11:24:34.891Z,-5.70
2019-01-30T11:27:07.806Z,-5.80
2019-01-30T11:29:43.361Z,-5.80
2019-01-30T11:32:17.610Z,-5.90
2019-01-30T11:34:49.799Z,-5.90
2019-01-30T11:37:25.223Z,-5.80
2019-01-30T11:39:59.881Z,-5.80
2019-01-30T11:42:32.481Z,-5.80
2019-01-30T11:45:04.591Z,-5.80
2019-01-30T11:47:36.831Z,-5.80
2019-01-30T11:50:10.516Z,-5.70
2019-01-30T11:52:44.621Z,-5.60
2019-01-30T11:55:19.655Z,-5.50
2019-01-30T11:57:52.754Z,-5.40
2019-01-30T12:00:28.947Z,-5.40
2019-01-30T12:03:00.739Z,-5.40
2019-01-30T12:05:34.433Z,-5.50
2019-01-30T12:08:08.749Z,-5.40
2019-01-30T12:10:41.607Z,-5.40
2019-01-30T12:13:13.186Z,-5.30
2019-01-30T12:15:43.825Z,-5.30
2019-01-30T12:18:22.567Z,-5.30
2019-01-30T12:20:55.612Z,-5.30
2019-01-30T12:23:29.191Z,-5.30
2019-01-30T12:26:05.148Z,-5.20
2019-01-30T12:28:36.187Z,-5.20
2019-01-30T12:31:09.305Z,-5.10
2019-01-30T12:33:44.200Z,-5.20
2019-01-30T12:36:17.736Z,-5.20
2019-01-30T12:38:54.793Z,-5.30
2019-01-30T12:41:25.902Z,-5.30
2019-01-30T12:43:57.634Z,-5.40
2019-01-30T12:47:01.606Z,-5.50
2019-01-30T12:50:07.348Z,-5.50
2019-01-30T12:52:37.926Z,-5.50
2019-01-30T12:55:10.052Z,-5.50
2019-01-30T12:57:42.639Z,-5.50
2019-01-30T13:00:22.197Z,-5.50
2019-01-30T13:02:54.563Z,-5.40
2019-01-30T13:05:28.232Z,-5.40
2019-01-30T13:07:58.920Z,-5.40
2019-01-30T13:10:29.093Z,-5.40
2019-01-30T13:12:59.787Z,-5.40
2019-01-30T13:15:33.027Z,-5.30
2019-01-30T13:18:17.471Z,-5.30
2019-01-30T13:20:40.711Z,-5.30
2019-01-30T13:23:14.455Z,-5.20
2019-01-30T13:25:48.243Z,-5.30
2019-01-30T13:28:24.513Z,-5.40
2019-01-30T13:30:57.671Z,-5.40
2019-01-30T13:33:31.910Z,-5.30
2019-01-30T13:36:05.859Z,-5.30
2019-01-30T13:38:39.557Z,-5.30
2019-01-30T13:41:13.151Z,-5.40
2019-01-30T13:43:46.176Z,-5.30
2019-01-30T13:46:18.334Z,-5.30
2019-01-30T13:48:52.430Z,-5.30
2019-01-30T13:51:26.395Z,-5.40
2019-01-30T13:54:00.280Z,-5.30
2019-01-30T13:56:30.564Z,-5.40
2019-01-30T13:59:01.034Z,-5.40
2019-01-30T14:01:35.761Z,-5.40
2019-01-30T14:04:06.537Z,-5.40
2019-01-30T14:06:36.831Z,-5.40
2019-01-30T14:09:09.901Z,-5.50
2019-01-30T14:11:41.473Z,-5.40
2019-01-30T14:14:12.735Z,-5.40
2019-01-30T14:16:44.875Z,-5.40
2019-01-30T14:19:15.383Z,-5.40
2019-01-30T14:21:48.629Z,-5.40
2019-01-30T14:24:21.287Z,-5.40
2019-01-30T14:26:55.109Z,-5.30
2019-01-30T14:29:29.505Z,-5.30
2019-01-30T14:32:04.185Z,-5.40
2019-01-30T14:34:39.989Z,-5.40
2019-01-30T14:37:12.998Z,-5.40
2019-01-30T14:39:45.388Z,-5.40
2019-01-30T14:42:18.555Z,-5.40
2019-01-30T14:44:52.677Z,-5.40
2019-01-30T14:47:25.736Z,-5.40
2019-01-30T14:49:59.815Z,-5.40
2019-01-30T14:52:32.474Z,-5.40
2019-01-30T14:55:05.342Z,-5.40
2019-01-30T14:57:40.526Z,-5.30
2019-01-30T15:00:27.392Z,-5.30
2019-01-30T15:03:01.454Z,-5.20
2019-01-30T15:05:36.178Z,-5.20
2019-01-30T15:08:12.252Z,-5.30
2019-01-30T15:10:45.359Z,-5.30
2019-01-30T15:13:19.429Z,-5.40
2019-01-30T15:15:55.526Z,-5.40
2019-01-30T15:18:29.563Z,-5.30
2019-01-30T15:21:02.423Z,-5.30
2019-01-30T15:23:35.903Z,-5.40
2019-01-30T15:26:09.353Z,-5.30
2019-01-30T15:28:41.535Z,-5.30
2019-01-30T15:31:17.855Z,-5.30
2019-01-30T15:33:50.917Z,-5.30
2019-01-30T15:36:25.735Z,-5.30
2019-01-30T15:38:58.911Z,-5.20
2019-01-30T15:41:31.827Z,-5.20
2019-01-30T15:44:02.721Z,-5.20
2019-01-30T15:46:37.695Z,-5.20
2019-01-30T15:49:10.652Z,-5.10
2019-01-30T15:51:45.708Z,-5.10
2019-01-30T15:54:18.780Z,-5.10
2019-01-30T15:56:51.156Z,-5.10
2019-01-30T15:59:24.862Z,-5.10
2019-01-30T16:02:00.523Z,-5.10
2019-01-30T16:04:30.170Z,-5.00
2019-01-30T16:07:04.836Z,-5.00
2019-01-30T16:09:38.900Z,-5.00
2019-01-30T16:12:12.860Z,-5.00
2019-01-30T16:14:46.986Z,-5.00
2019-01-30T16:17:16.935Z,-5.10
2019-01-30T16:19:49.369Z,-5.10
2019-01-30T16:22:23.654Z,-5.10
2019-01-30T16:24:56.739Z,-5.00
2019-01-30T16:27:30.214Z,-5.00
2019-01-30T16:30:02.067Z,-5.00
2019-01-30T16:32:33.555Z,-5.00
2019-01-30T16:35:04.230Z,-5.00
2019-01-30T16:37:33.796Z,-5.00
2019-01-30T16:40:07.729Z,-5.00
2019-01-30T16:42:40.818Z,-5.00
2019-01-30T16:45:15.737Z,-5.00
2019-01-30T16:47:46.587Z,-5.00
2019-01-30T16:50:19.819Z,-5.00
2019-01-30T16:52:51.960Z,-5.00
2019-01-30T16:55:25.387Z,-5.00
2019-01-30T16:57:59.231Z,-4.90
2019-01-30T17:00:35.575Z,-4.90
2019-01-30T17:03:07.376Z,-4.90
2019-01-30T17:05:40.076Z,-4.80
2019-01-30T17:08:13.876Z,-4.80
2019-01-30T17:10:46.370Z,-4.90
2019-01-30T17:13:21.995Z,-4.90
2019-01-30T17:15:57.162Z,-4.80
2019-01-30T17:18:29.412Z,-4.80
2019-01-30T17:21:02.590Z,-4.80
2019-01-30T17:23:36.149Z,-4.80
2019-01-30T17:26:11.899Z,-4.80
2019-01-30T17:28:44.289Z,-4.80
2019-01-30T17:31:27.331Z,-4.80
2019-01-30T17:34:00.952Z,-4.90
2019-01-30T17:36:33.109Z,-4.90
2019-01-30T17:39:07.875Z,-4.80
2019-01-30T17:41:38.438Z,-4.80
2019-01-30T17:44:12.916Z,-4.80
2019-01-30T17:46:45.693Z,-4.80
2019-01-30T17:49:19.068Z,-4.90
2019-01-30T17:51:48.769Z,-4.80
2019-01-30T17:54:18.421Z,-4.80
2019-01-30T17:56:48.727Z,-4.80
2019-01-30T17:59:19.806Z,-4.80
2019-01-30T18:01:50.517Z,-4.80
2019-01-30T18:04:20.831Z,-4.80
2019-01-30T18:06:51.263Z,-4.80
2019-01-30T18:09:23.871Z,-4.80
2019-01-30T18:11:59.493Z,-4.90
2019-01-30T18:14:33.518Z,-4.80
2019-01-30T18:17:04.695Z,-4.90
2019-01-30T18:19:39.388Z,-4.90
2019-01-30T18:22:14.306Z,-4.80
2019-01-30T18:24:49.449Z,-4.80
2019-01-30T18:27:22.973Z,-4.80
2019-01-30T18:29:54.418Z,-4.80
2019-01-30T18:32:29.187Z,-4.80
2019-01-30T18:35:04.776Z,-4.80
2019-01-30T18:37:40.543Z,-4.80
2019-01-30T18:40:17.029Z,-4.90
2019-01-30T18:42:53.363Z,-4.90
2019-01-30T18:45:28.720Z,-4.90
2019-01-30T18:48:01.122Z,-4.80
2019-01-30T18:50:35.844Z,-4.80
2019-01-30T18:53:07.739Z,-4.80
2019-01-30T18:55:43.464Z,-4.80
2019-01-30T18:58:17.148Z,-4.70
2019-01-30T19:00:50.755Z,-4.70
2019-01-30T19:03:24.846Z,-4.70
2019-01-30T19:06:00.551Z,-4.60
2019-01-30T19:08:33.135Z,-4.60
2019-01-30T19:11:05.655Z,-4.60
2019-01-30T19:13:39.642Z,-4.60
2019-01-30T19:16:10.065Z,-4.60
2019-01-30T19:18:42.814Z,-4.50
2019-01-30T19:21:14.851Z,-4.50
2019-01-30T19:23:47.808Z,-4.50
2019-01-30T19:26:19.855Z,-4.40
2019-01-30T19:28:50.443Z,-4.40
2019-01-30T19:31:20.436Z,-4.40
2019-01-30T19:33:50.319Z,-4.30
2019-01-30T19:36:26.176Z,-4.30
2019-01-30T19:38:59.175Z,-4.40
2019-01-30T19:41:31.279Z,-4.30
2019-01-30T19:44:04.382Z,-4.30
2019-01-30T19:46:36.414Z,-4.30
2019-01-30T19:49:08.087Z,-4.30
2019-01-30T19:51:41.898Z,-4.20
2019-01-30T19:54:13.978Z,-4.20
2019-01-30T19:56:52.610Z,-4.20
2019-01-30T19:59:25.319Z,-4.20
2019-01-30T20:01:58.335Z,-4.20
2019-01-30T20:04:30.935Z,-4.20
2019-01-30T20:07:14.461Z,-4.10
2019-01-30T20:09:41.215Z,-4.10
2019-01-30T20:12:15.810Z,-4.10
2019-01-30T20:14:46.210Z,-4.00
2019-01-30T20:17:20.759Z,-4.00
2019-01-30T20:19:55.265Z,-4.00
2019-01-30T20:22:28.421Z,-4.00
2019-01-30T20:25:02.383Z,-3.90
2019-01-30T20:27:37.230Z,-4.00
2019-01-30T20:30:15.936Z,-3.90
2019-01-30T20:32:50.402Z,-3.90
2019-01-30T20:35:24.452Z,-3.80
2019-01-30T20:37:57.282Z,-3.80
2019-01-30T20:40:31.809Z,-3.80
2019-01-30T20:43:05.363Z,-3.80
2019-01-30T20:45:39.007Z,-3.80
2019-01-30T20:48:16.835Z,-3.80
2019-01-30T20:50:50.302Z,-3.70
2019-01-30T20:53:22.858Z,-3.70
2019-01-30T20:55:56.419Z,-3.60
2019-01-30T20:58:29.716Z,-3.60
2019-01-30T21:01:04.390Z,-3.60
2019-01-30T21:03:37.137Z,-3.60
2019-01-30T21:06:12.809Z,-3.60
2019-01-30T21:08:47.939Z,-3.60
2019-01-30T21:11:24.015Z,-3.60
2019-01-30T21:13:57.176Z,-3.60
2019-01-30T21:16:32.671Z,-3.60
2019-01-30T21:19:03.721Z,-3.60
2019-01-30T21:21:38.283Z,-3.60
2019-01-30T21:24:09.792Z,-3.60
2019-01-30T21:26:41.914Z,-3.60
2019-01-30T21:29:14.602Z,-3.50
2019-01-30T21:31:45.112Z,-3.50
2019-01-30T21:34:18.758Z,-3.50
2019-01-30T21:36:50.984Z,-3.40
2019-01-30T21:39:25.476Z,-3.40
2019-01-30T21:41:58.000Z,-3.40
2019-01-30T21:44:30.083Z,-3.40
2019-01-30T21:47:03.119Z,-3.40
2019-01-30T21:49:33.692Z,-3.40
2019-01-30T21:52:06.020Z,-3.40
2019-01-30T21:54:38.891Z,-3.30
2019-01-30T21:57:12.449Z,-3.30
2019-01-30T21:59:45.444Z,-3.30
2019-01-30T22:02:18.074Z,-3.30
2019-01-30T22:04:54.751Z,-3.30
2019-01-30T22:07:30.242Z,-3.20
2019-01-30T22:10:07.203Z,-3.30
2019-01-30T22:12:40.693Z,-3.30
2019-01-30T22:15:14.090Z,-3.30
2019-01-30T22:17:51.815Z,-3.30
2019-01-30T22:20:25.603Z,-3.30
2019-01-30T22:22:59.664Z,-3.30
2019-01-30T22:25:33.614Z,-3.30
2019-01-30T22:28:03.862Z,-3.30
2019-01-30T22:30:35.783Z,-3.30
2019-01-30T22:33:07.710Z,-3.30
2019-01-30T22:35:40.270Z,-3.30
2019-01-30T22:38:12.913Z,-3.30
2019-01-30T22:40:44.299Z,-3.30
2019-01-30T22:43:13.942Z,-3.30
2019-01-30T22:45:46.563Z,-3.30
2019-01-30T22:48:17.968Z,-3.30
2019-01-30T22:50:51.988Z,-3.30
2019-01-30T22:53:22.083Z,-3.30
2019-01-30T22:55:52.965Z,-3.30
2019-01-30T22:58:29.067Z,-3.40
2019-01-30T23:01:46.918Z,-3.40
2019-01-30T23:05:04.511Z,-3.40
2019-01-30T23:08:36.164Z,-3.50
2019-01-30T23:11:49.411Z,-3.50
2019-01-30T23:14:41.635Z,-3.60
2019-01-30T23:18:13.630Z,-3.70
2019-01-30T23:20:58.405Z,-3.70
2019-01-30T23:24:21.796Z,-3.70
2019-01-30T23:27:18.503Z,-3.80
2019-01-30T23:30:34.549Z,-3.70
2019-01-30T23:34:02.403Z,-3.70
2019-01-30T23:36:51.566Z,-3.70
2019-01-30T23:39:45.354Z,-3.60
2019-01-30T23:43:02.037Z,-3.60
2019-01-30T23:46:22.337Z,-3.60
2019-01-30T23:49:56.031Z,-3.60
2019-01-30T23:52:51.255Z,-3.50
2019-01-30T23:56:11.149Z,-3.60
2019-01-30T23:59:10.231Z,-3.70
